Time;durP1;ratioP1;P1;durP2;ratioP2;P2;SDS_P1;SDS_P2;PMS_P1;PMS_P2;Temp;Humidity;BMP_temperature;BMP_pressure;BME280_temperature;BME280_humidity;BME280_pressure;Samples;Min_cycle;Max_cycle;Signal;HPM_P1;HPM_P2
2023/10/29 00:02:13;;;;;;;4.65;1.88;;;10.50;99.90;;;;;;5030316;28;20072;-79
2023/10/29 00:04:39;;;;;;;5.82;1.67;;;10.50;99.90;;;;;;5033655;28;20064;-78
2023/10/29 00:07:05;;;;;;;5.65;1.67;;;10.50;99.90;;;;;;5036017;28;20037;-78
2023/10/29 00:09:31;;;;;;;5.75;2.00;;;10.50;99.90;;;;;;5042372;28;20551;-78
2023/10/29 00:11:57;;;;;;;4.88;1.48;;;10.40;99.90;;;;;;5029177;28;20133;-78
2023/10/29 00:14:23;;;;;;;4.82;1.50;;;10.40;99.90;;;;;;5038091;28;20111;-79
2023/10/29 00:16:49;;;;;;;4.00;1.40;;;10.50;99.90;;;;;;5035419;28;20021;-79
2023/10/29 00:19:15;;;;;;;3.97;1.75;;;10.40;99.90;;;;;;5035745;28;20091;-79
2023/10/29 00:21:41;;;;;;;6.43;1.90;;;10.40;99.90;;;;;;5034676;28;20036;-79
2023/10/29 00:24:07;;;;;;;4.95;1.70;;;10.40;99.90;;;;;;5035184;28;20067;-79
2023/10/29 00:26:32;;;;;;;4.80;1.60;;;10.30;99.90;;;;;;5029066;28;20037;-78
2023/10/29 00:28:58;;;;;;;2.97;1.40;;;10.20;99.90;;;;;;5030356;28;20040;-79
2023/10/29 00:31:24;;;;;;;7.45;1.75;;;10.20;99.90;;;;;;5046628;28;20082;-79
2023/10/29 00:33:50;;;;;;;4.65;1.52;;;10.30;99.90;;;;;;5043089;28;20017;-79
2023/10/29 00:36:16;;;;;;;9.35;1.80;;;10.40;99.90;;;;;;5040139;28;20033;-78
2023/10/29 00:38:42;;;;;;;4.57;1.70;;;10.50;99.90;;;;;;5037698;28;20030;-79
2023/10/29 00:41:08;;;;;;;7.00;1.67;;;10.70;99.90;;;;;;5033800;28;20080;-78
2023/10/29 00:43:45;;;;;;;5.65;1.98;;;10.80;99.90;;;;;;5032834;28;20032;-79
2023/10/29 00:46:13;;;;;;;2.70;1.00;;;11.00;99.90;;;;;;5038331;28;20071;-79
2023/10/29 00:48:39;;;;;;;4.68;1.33;;;11.00;99.90;;;;;;5045913;28;20025;-79
2023/10/29 00:51:05;;;;;;;5.70;1.60;;;11.00;99.90;;;;;;5041347;28;20793;-79
2023/10/29 00:53:32;;;;;;;3.28;1.20;;;10.90;99.90;;;;;;5037912;28;20033;-79
2023/10/29 00:55:58;;;;;;;5.22;1.80;;;10.90;99.90;;;;;;5037528;28;20434;-78
2023/10/29 00:58:24;;;;;;;5.50;2.42;;;10.90;99.90;;;;;;5029412;28;20029;-79
2023/10/29 01:00:50;;;;;;;3.92;1.50;;;10.90;99.90;;;;;;5036018;28;20052;-79
2023/10/29 01:03:18;;;;;;;5.22;1.30;;;10.90;99.90;;;;;;5030297;28;20109;-79
2023/10/29 01:05:47;;;;;;;4.78;1.58;;;10.80;99.90;;;;;;5040279;28;20029;-79
2023/10/29 01:08:14;;;;;;;3.42;1.10;;;10.80;99.90;;;;;;5045524;28;20075;-78
2023/10/29 01:10:39;;;;;;;5.55;1.40;;;10.90;99.90;;;;;;5036095;28;20032;-78
2023/10/29 01:13:05;;;;;;;5.35;1.60;;;10.90;99.90;;;;;;5033686;28;20033;-78
2023/10/29 01:15:33;;;;;;;4.95;1.40;;;11.00;99.90;;;;;;5048362;28;20115;-79
2023/10/29 01:17:59;;;;;;;5.13;1.60;;;11.00;99.90;;;;;;5041528;28;20549;-79
2023/10/29 01:20:24;;;;;;;6.95;1.90;;;11.20;99.90;;;;;;5032863;28;20029;-79
2023/10/29 01:22:50;;;;;;;7.25;1.70;;;11.30;99.90;;;;;;5031391;28;20026;-78
2023/10/29 01:25:17;;;;;;;4.40;1.58;;;11.00;99.90;;;;;;5033682;28;20035;-79
2023/10/29 01:27:44;;;;;;;5.10;1.65;;;11.00;99.90;;;;;;5028622;28;20538;-79
2023/10/29 01:30:11;;;;;;;6.15;2.13;;;11.10;99.90;;;;;;5028289;28;20044;-79
2023/10/29 01:32:38;;;;;;;5.05;2.10;;;11.10;99.90;;;;;;5036398;28;20479;-80
2023/10/29 01:35:04;;;;;;;5.15;2.20;;;11.10;99.90;;;;;;5033230;28;20029;-79
2023/10/29 01:37:29;;;;;;;9.10;2.65;;;11.00;99.90;;;;;;5030637;28;20033;-79
2023/10/29 01:39:55;;;;;;;9.77;2.33;;;11.00;99.90;;;;;;5030163;28;20026;-79
2023/10/29 01:42:22;;;;;;;8.75;2.00;;;11.00;99.90;;;;;;5043740;28;20116;-78
2023/10/29 01:44:47;;;;;;;4.40;1.75;;;10.90;99.90;;;;;;5035325;28;20057;-79
2023/10/29 01:47:13;;;;;;;6.07;1.90;;;10.90;99.90;;;;;;5031676;28;20052;-79
2023/10/29 01:49:39;;;;;;;3.75;1.65;;;10.80;99.90;;;;;;5036755;28;20029;-81
2023/10/29 01:52:05;;;;;;;4.78;1.95;;;10.80;99.90;;;;;;5042822;28;20091;-79
2023/10/29 01:54:31;;;;;;;4.18;1.80;;;10.70;99.90;;;;;;5028357;28;20029;-79
2023/10/29 01:56:56;;;;;;;8.35;1.70;;;10.70;99.90;;;;;;5037111;28;20029;-79
2023/10/29 01:59:22;;;;;;;8.68;2.00;;;10.70;99.90;;;;;;5035757;28;20122;-79
2023/10/29 02:01:49;;;;;;;5.15;2.17;;;10.70;99.90;;;;;;5031537;28;20406;-79
2023/10/29 02:04:14;;;;;;;4.80;2.03;;;10.60;99.90;;;;;;5035318;28;20041;-78
2023/10/29 02:06:40;;;;;;;5.55;2.20;;;10.40;99.90;;;;;;5031384;28;20124;-79
2023/10/29 02:09:08;;;;;;;4.00;2.30;;;10.40;99.90;;;;;;5045248;28;20013;-79
2023/10/29 02:11:35;;;;;;;4.32;1.63;;;10.40;99.90;;;;;;5037074;28;20033;-79
2023/10/29 02:14:01;;;;;;;6.95;2.13;;;10.30;99.90;;;;;;5016436;28;20037;-79
2023/10/29 02:16:27;;;;;;;4.47;1.58;;;10.20;99.90;;;;;;5032402;28;20798;-79
2023/10/29 02:18:53;;;;;;;3.95;1.70;;;10.10;99.90;;;;;;5037725;28;20037;-79
2023/10/29 02:21:20;;;;;;;5.43;2.50;;;10.00;99.90;;;;;;5035894;28;20026;-82
2023/10/29 02:23:46;;;;;;;5.15;1.83;;;10.00;99.90;;;;;;5035247;28;20026;-79
2023/10/29 02:26:12;;;;;;;6.25;3.10;;;9.90;99.90;;;;;;5028102;28;20472;-79
2023/10/29 02:28:37;;;;;;;5.43;2.17;;;9.90;99.90;;;;;;5035271;28;20037;-79
2023/10/29 02:31:03;;;;;;;5.57;2.53;;;10.00;99.90;;;;;;5037584;28;20034;-79
2023/10/29 02:33:30;;;;;;;3.53;2.05;;;9.90;99.90;;;;;;5039926;28;20112;-78
2023/10/29 02:35:56;;;;;;;3.95;1.83;;;9.90;99.90;;;;;;5025168;28;20037;-79
2023/10/29 02:38:23;;;;;;;7.22;2.00;;;9.90;99.90;;;;;;5044586;28;20040;-79
2023/10/29 02:40:49;;;;;;;5.57;1.80;;;9.90;99.90;;;;;;5038136;28;20032;-79
2023/10/29 02:43:15;;;;;;;5.28;1.58;;;9.70;99.90;;;;;;5040751;28;20041;-78
2023/10/29 02:45:42;;;;;;;8.27;1.92;;;9.80;99.90;;;;;;5040352;28;20035;-79
2023/10/29 02:48:08;;;;;;;6.38;1.90;;;9.80;99.90;;;;;;5032722;28;20041;-78
2023/10/29 02:50:37;;;;;;;3.03;1.65;;;9.90;99.90;;;;;;5045508;28;20048;-80
2023/10/29 02:53:03;;;;;;;4.82;1.48;;;9.80;99.90;;;;;;5040852;28;20072;-78
2023/10/29 02:55:29;;;;;;;3.17;1.17;;;9.70;99.90;;;;;;5035782;28;20067;-79
2023/10/29 02:57:54;;;;;;;3.80;1.75;;;9.80;99.90;;;;;;5034645;28;20566;-79
2023/10/29 03:00:20;;;;;;;5.75;2.42;;;9.80;99.90;;;;;;5034405;28;20025;-79
2023/10/29 03:02:46;;;;;;;4.88;2.20;;;9.80;99.90;;;;;;5035472;28;20029;-79
2023/10/29 03:05:12;;;;;;;3.47;1.70;;;9.80;99.90;;;;;;5037355;28;20040;-78
2023/10/29 03:07:38;;;;;;;7.20;2.00;;;9.80;99.90;;;;;;5028955;28;20022;-79
2023/10/29 03:10:04;;;;;;;6.07;1.80;;;9.80;99.90;;;;;;5034914;28;20144;-79
2023/10/29 03:12:30;;;;;;;6.70;1.60;;;9.90;99.90;;;;;;5029648;28;20502;-79
2023/10/29 03:14:56;;;;;;;4.07;1.65;;;9.90;99.90;;;;;;5036973;28;20036;-79
2023/10/29 03:17:22;;;;;;;6.43;1.50;;;10.00;99.90;;;;;;5034097;28;20657;-79
2023/10/29 03:19:48;;;;;;;4.78;2.03;;;10.00;99.90;;;;;;5040820;28;20029;-80
2023/10/29 03:22:13;;;;;;;5.22;1.45;;;10.10;99.90;;;;;;5039537;28;20619;-79
2023/10/29 03:24:39;;;;;;;7.07;2.72;;;10.30;99.90;;;;;;5045457;28;20032;-79
2023/10/29 03:27:05;;;;;;;4.80;1.63;;;10.20;99.90;;;;;;5037014;28;22235;-79
2023/10/29 03:29:31;;;;;;;6.38;1.98;;;10.10;99.90;;;;;;5039629;28;20034;-80
2023/10/29 03:31:57;;;;;;;5.95;1.73;;;10.20;99.90;;;;;;5046885;28;20040;-78
2023/10/29 03:34:22;;;;;;;7.70;2.25;;;10.40;99.90;;;;;;5039350;28;20116;-79
2023/10/29 03:36:48;;;;;;;7.38;2.28;;;10.30;99.90;;;;;;5037120;28;20101;-79
2023/10/29 03:39:15;;;;;;;7.13;1.80;;;10.10;99.90;;;;;;5037081;28;20032;-78
2023/10/29 03:41:41;;;;;;;4.80;2.13;;;10.10;99.90;;;;;;5037214;28;20124;-79
2023/10/29 03:44:07;;;;;;;5.07;1.90;;;10.00;99.90;;;;;;5031733;28;20506;-79
2023/10/29 03:46:33;;;;;;;9.13;1.70;;;10.20;99.90;;;;;;5043730;28;20037;-79
2023/10/29 03:48:59;;;;;;;7.82;2.05;;;10.50;99.90;;;;;;5045645;28;20029;-79
2023/10/29 03:51:28;;;;;;;6.53;1.98;;;10.60;99.90;;;;;;5027701;28;20086;-80
2023/10/29 03:53:55;;;;;;;4.88;2.13;;;10.60;99.90;;;;;;5036926;28;20032;-80
2023/10/29 03:56:20;;;;;;;5.70;2.30;;;10.60;99.90;;;;;;5017799;28;20064;-80
2023/10/29 03:58:47;;;;;;;22.02;13.65;;;10.60;99.90;;;;;;5043879;28;20092;-80
2023/10/29 04:01:16;;;;;;;7.05;4.30;;;10.50;99.90;;;;;;5044650;28;20068;-80
2023/10/29 04:03:43;;;;;;;8.05;2.60;;;10.40;99.90;;;;;;5032768;28;20075;-80
2023/10/29 04:06:11;;;;;;;7.72;2.72;;;10.40;99.90;;;;;;5029652;28;20072;-80
2023/10/29 04:08:38;;;;;;;4.45;1.75;;;10.30;99.90;;;;;;5027283;28;20029;-79
2023/10/29 04:11:04;;;;;;;4.43;2.17;;;10.30;99.90;;;;;;5029615;28;20059;-79
2023/10/29 04:13:31;;;;;;;8.32;1.98;;;10.30;99.90;;;;;;5032629;28;20037;-81
2023/10/29 04:15:57;;;;;;;5.20;2.33;;;10.30;99.90;;;;;;5036979;28;20043;-80
2023/10/29 04:18:27;;;;;;;2.80;1.45;;;10.40;99.90;;;;;;5034602;28;20033;-80
2023/10/29 04:20:54;;;;;;;5.78;2.00;;;10.40;99.90;;;;;;5032751;28;20059;-81
2023/10/29 04:23:19;;;;;;;4.28;2.17;;;10.50;99.90;;;;;;5034798;28;20033;-81
2023/10/29 04:25:45;;;;;;;8.05;1.77;;;10.40;99.90;;;;;;5036310;28;20556;-79
2023/10/29 04:28:11;;;;;;;185.45;92.20;;;10.40;99.90;;;;;;5035975;28;20033;-80
2023/10/29 04:30:37;;;;;;;190.98;97.68;;;10.40;99.90;;;;;;5030354;28;20022;-80
2023/10/29 04:33:03;;;;;;;25.05;12.38;;;10.50;99.90;;;;;;5041062;28;20037;-79
2023/10/29 04:35:30;;;;;;;11.98;5.35;;;10.40;99.90;;;;;;5034257;28;20033;-79
2023/10/29 04:37:55;;;;;;;3.95;2.08;;;10.30;99.90;;;;;;5032378;28;20052;-80
2023/10/29 04:40:24;;;;;;;5.97;1.83;;;10.20;99.90;;;;;;5027892;28;20610;-80
2023/10/29 04:42:50;;;;;;;4.18;2.00;;;10.20;99.90;;;;;;5032430;28;20017;-80
2023/10/29 04:45:15;;;;;;;4.90;2.15;;;10.20;99.90;;;;;;5036824;28;20524;-80
2023/10/29 04:47:41;;;;;;;11.25;2.95;;;10.30;99.90;;;;;;5036209;28;20357;-80
2023/10/29 04:50:07;;;;;;;4.68;2.15;;;10.40;99.90;;;;;;5038458;28;20033;-79
2023/10/29 04:52:33;;;;;;;6.50;2.42;;;10.30;99.90;;;;;;5039687;28;20037;-79
2023/10/29 04:55:01;;;;;;;7.35;1.95;;;10.20;99.90;;;;;;5036878;28;20045;-80
2023/10/29 04:57:29;;;;;;;5.53;2.05;;;10.20;99.90;;;;;;5040924;28;20032;-81
2023/10/29 04:59:55;;;;;;;3.85;1.73;;;10.20;99.90;;;;;;5038802;28;20036;-83
2023/10/29 05:02:22;;;;;;;5.30;2.53;;;10.10;99.90;;;;;;5028756;28;20049;-80
2023/10/29 05:04:51;;;;;;;4.15;2.05;;;10.00;99.90;;;;;;5031729;28;20577;-80
2023/10/29 05:07:17;;;;;;;5.38;1.83;;;10.10;99.90;;;;;;5033225;28;20502;-80
2023/10/29 05:09:43;;;;;;;3.58;2.10;;;10.10;99.90;;;;;;5033754;28;20028;-79
2023/10/29 05:12:09;;;;;;;3.80;2.30;;;9.90;99.90;;;;;;5035657;28;20096;-79
2023/10/29 05:14:35;;;;;;;9.38;2.10;;;9.90;99.90;;;;;;5028755;28;20029;-79
2023/10/29 05:17:04;;;;;;;5.95;2.25;;;9.90;99.90;;;;;;5035429;28;20056;-80
2023/10/29 05:19:30;;;;;;;4.30;1.75;;;9.80;99.90;;;;;;5039215;28;20025;-79
2023/10/29 05:21:56;;;;;;;5.18;2.65;;;9.80;99.90;;;;;;5028741;28;20065;-80
2023/10/29 05:24:22;;;;;;;7.60;2.53;;;9.90;99.90;;;;;;5042322;28;20388;-78
2023/10/29 05:26:48;;;;;;;9.02;2.80;;;10.00;99.90;;;;;;5027574;28;20146;-78
2023/10/29 05:29:14;;;;;;;4.25;2.25;;;10.00;99.90;;;;;;5024105;28;20112;-77
2023/10/29 05:31:39;;;;;;;4.47;2.25;;;9.90;99.90;;;;;;5038247;28;20049;-79
2023/10/29 05:34:05;;;;;;;4.32;2.28;;;9.90;99.90;;;;;;5031987;28;20041;-78
2023/10/29 05:36:31;;;;;;;6.18;2.00;;;9.90;99.90;;;;;;5028560;28;20053;-78
2023/10/29 05:38:57;;;;;;;7.55;2.40;;;9.90;99.90;;;;;;5037438;28;20040;-78
2023/10/29 05:41:23;;;;;;;4.18;2.40;;;10.00;99.90;;;;;;5035563;28;20029;-80
2023/10/29 05:43:49;;;;;;;5.43;2.53;;;10.00;99.90;;;;;;5032020;28;20434;-77
2023/10/29 05:46:15;;;;;;;8.80;2.15;;;9.90;99.90;;;;;;5040148;28;20033;-78
2023/10/29 05:48:41;;;;;;;8.48;3.08;;;10.00;99.90;;;;;;5029905;28;20380;-78
2023/10/29 05:51:12;;;;;;;4.47;2.90;;;10.00;99.90;;;;;;5033686;28;20041;-81
2023/10/29 05:53:39;;;;;;;4.03;2.05;;;10.00;99.90;;;;;;5012002;28;20037;-80
2023/10/29 05:56:05;;;;;;;4.45;2.03;;;10.10;99.90;;;;;;5030418;28;20052;-81
2023/10/29 05:58:32;;;;;;;5.07;2.17;;;10.00;99.90;;;;;;5034805;28;20391;-79
2023/10/29 06:00:57;;;;;;;4.80;2.20;;;9.80;99.90;;;;;;5032846;28;20506;-79
2023/10/29 06:03:24;;;;;;;6.22;2.20;;;9.90;99.90;;;;;;5040757;28;20033;-76
2023/10/29 06:05:51;;;;;;;7.05;2.60;;;9.90;99.90;;;;;;5035750;28;20055;-75
2023/10/29 06:08:21;;;;;;;7.70;2.30;;;9.80;99.90;;;;;;5036880;28;20032;-78
2023/10/29 06:10:50;;;;;;;5.65;2.78;;;9.80;99.90;;;;;;5040987;28;20025;-77
2023/10/29 06:13:16;;;;;;;6.05;2.50;;;9.90;99.90;;;;;;5024881;28;20037;-79
2023/10/29 06:15:42;;;;;;;4.50;2.42;;;10.10;99.90;;;;;;5035604;28;20037;-76
2023/10/29 06:18:09;;;;;;;4.80;2.10;;;10.20;99.90;;;;;;5039215;28;20033;-78
2023/10/29 06:20:38;;;;;;;4.05;2.42;;;10.20;99.90;;;;;;5036429;28;20060;-77
2023/10/29 06:23:04;;;;;;;8.30;2.40;;;10.10;99.90;;;;;;5052044;28;20048;-77
2023/10/29 06:25:29;;;;;;;5.75;2.58;;;10.20;99.90;;;;;;5052141;28;20033;-79
2023/10/29 06:28:01;;;;;;;6.45;2.80;;;10.20;99.90;;;;;;5033360;28;20514;-75
2023/10/29 06:30:26;;;;;;;7.75;2.58;;;10.20;99.90;;;;;;5027103;28;20037;-78
2023/10/29 06:33:00;;;;;;;14.40;11.13;;;10.20;99.90;;;;;;5032204;28;20041;-77
2023/10/29 06:35:26;;;;;;;7.80;3.03;;;10.40;99.90;;;;;;5037995;28;20102;-78
2023/10/29 06:37:52;;;;;;;5.30;2.35;;;10.30;99.90;;;;;;5035667;28;20684;-77
2023/10/29 06:40:18;;;;;;;4.35;2.15;;;10.20;99.90;;;;;;5040781;28;20029;-79
2023/10/29 06:42:44;;;;;;;4.57;2.08;;;10.10;99.90;;;;;;5030311;28;20718;-77
2023/10/29 06:45:10;;;;;;;4.85;2.22;;;10.10;99.90;;;;;;5020863;28;20103;-76
2023/10/29 06:47:36;;;;;;;4.97;2.17;;;10.20;99.90;;;;;;5032222;28;20387;-77
2023/10/29 06:50:02;;;;;;;4.45;2.05;;;10.30;99.90;;;;;;5034679;28;20033;-78
2023/10/29 06:52:27;;;;;;;7.80;2.75;;;10.30;99.90;;;;;;5018479;28;20037;-77
2023/10/29 06:54:53;;;;;;;4.20;1.83;;;10.40;99.90;;;;;;5029615;28;20032;-77
2023/10/29 06:57:20;;;;;;;5.10;2.55;;;10.50;99.90;;;;;;5033507;28;20033;-76
2023/10/29 06:59:45;;;;;;;6.47;2.40;;;10.50;99.90;;;;;;5036374;28;20029;-76
2023/10/29 07:02:11;;;;;;;4.05;1.90;;;10.50;99.90;;;;;;5035783;28;20056;-76
2023/10/29 07:04:36;;;;;;;4.72;1.90;;;10.50;99.90;;;;;;5027609;28;20026;-77
2023/10/29 07:07:02;;;;;;;5.78;1.95;;;10.50;99.90;;;;;;5034901;28;20307;-76
2023/10/29 07:09:28;;;;;;;5.15;1.98;;;10.60;99.90;;;;;;5033554;28;20055;-76
2023/10/29 07:11:55;;;;;;;5.65;2.40;;;10.60;99.90;;;;;;5033875;28;20131;-76
2023/10/29 07:14:21;;;;;;;5.70;3.10;;;10.70;99.90;;;;;;5035546;28;20040;-75
2023/10/29 07:16:47;;;;;;;8.77;2.85;;;10.50;99.90;;;;;;5041870;28;20100;-78
2023/10/29 07:19:14;;;;;;;7.93;2.90;;;10.40;99.90;;;;;;5039719;28;20033;-75
2023/10/29 07:21:40;;;;;;;7.65;2.97;;;10.40;99.90;;;;;;5036592;28;20021;-77
2023/10/29 07:24:06;;;;;;;5.80;2.67;;;10.40;99.90;;;;;;5023067;28;20091;-78
2023/10/29 07:26:33;;;;;;;4.85;2.58;;;10.40;99.90;;;;;;5034349;28;20025;-78
2023/10/29 07:28:59;;;;;;;4.57;1.98;;;10.40;99.90;;;;;;5040924;28;20910;-77
2023/10/29 07:31:25;;;;;;;4.00;2.28;;;10.40;99.90;;;;;;5027923;28;20029;-77
2023/10/29 07:33:52;;;;;;;10.88;3.40;;;10.50;99.90;;;;;;5040876;28;20044;-76
2023/10/29 07:36:19;;;;;;;6.63;3.60;;;10.60;99.90;;;;;;5027703;28;20045;-74
2023/10/29 07:38:44;;;;;;;10.55;4.28;;;10.70;99.90;;;;;;5030867;28;20031;-77
2023/10/29 07:41:10;;;;;;;5.65;2.95;;;10.60;99.90;;;;;;5034706;28;20417;-76
2023/10/29 07:43:36;;;;;;;7.28;2.70;;;10.70;99.90;;;;;;5037003;28;20030;-78
2023/10/29 07:46:02;;;;;;;6.32;3.08;;;10.60;99.90;;;;;;5033644;28;20033;-78
2023/10/29 07:48:28;;;;;;;7.82;3.40;;;10.70;99.90;;;;;;5043609;28;20116;-78
2023/10/29 07:50:54;;;;;;;6.80;2.78;;;10.70;99.90;;;;;;5040905;28;20112;-78
2023/10/29 07:53:20;;;;;;;6.90;3.25;;;10.70;99.90;;;;;;5040082;28;20460;-76
2023/10/29 07:55:46;;;;;;;9.30;2.63;;;10.80;99.90;;;;;;5040172;28;20736;-77
2023/10/29 07:58:11;;;;;;;4.70;2.35;;;10.80;99.90;;;;;;5049554;28;20379;-77
2023/10/29 08:00:37;;;;;;;5.53;2.47;;;10.90;99.90;;;;;;5035906;28;20063;-77
2023/10/29 08:03:03;;;;;;;5.05;2.05;;;10.90;99.90;;;;;;5039338;28;20104;-76
2023/10/29 08:05:29;;;;;;;12.10;2.20;;;10.90;99.90;;;;;;5035288;28;20605;-79
2023/10/29 08:07:55;;;;;;;6.25;2.85;;;11.10;99.90;;;;;;5031641;28;20036;-78
2023/10/29 08:10:20;;;;;;;8.15;3.05;;;12.00;99.90;;;;;;5026515;28;20083;-79
2023/10/29 08:12:46;;;;;;;4.60;2.17;;;11.50;99.90;;;;;;5030105;28;20037;-78
2023/10/29 08:15:12;;;;;;;3.88;2.25;;;11.40;99.90;;;;;;5039045;28;20029;-78
2023/10/29 08:17:39;;;;;;;6.72;2.65;;;11.40;99.90;;;;;;5027002;28;20116;-76
2023/10/29 08:20:06;;;;;;;6.45;2.88;;;11.30;99.90;;;;;;5036459;28;20036;-78
2023/10/29 08:22:32;;;;;;;7.38;3.08;;;11.00;99.90;;;;;;5029797;28;20406;-77
2023/10/29 08:24:59;;;;;;;7.03;2.40;;;10.90;99.90;;;;;;5026665;28;20073;-79
2023/10/29 08:27:25;;;;;;;5.75;2.33;;;10.80;99.90;;;;;;5035384;28;20029;-77
2023/10/29 08:29:50;;;;;;;6.10;2.15;;;10.80;99.90;;;;;;5031320;28;20446;-78
2023/10/29 08:32:17;;;;;;;5.80;3.10;;;11.00;99.90;;;;;;5033539;28;20120;-78
2023/10/29 08:34:43;;;;;;;5.85;2.88;;;11.00;99.90;;;;;;5026943;28;20048;-78
2023/10/29 08:37:10;;;;;;;7.40;2.97;;;11.00;99.90;;;;;;5032882;28;20387;-78
2023/10/29 08:39:36;;;;;;;7.40;2.95;;;11.00;99.90;;;;;;5037473;28;20522;-78
2023/10/29 08:42:02;;;;;;;7.03;2.95;;;11.10;99.90;;;;;;5037666;28;20624;-78
2023/10/29 08:44:28;;;;;;;5.57;2.83;;;11.10;99.90;;;;;;5030381;28;20028;-78
2023/10/29 08:46:54;;;;;;;5.93;2.72;;;11.10;99.90;;;;;;5037935;28;20028;-78
2023/10/29 08:49:20;;;;;;;9.40;3.35;;;11.10;99.90;;;;;;5037981;28;20364;-78
2023/10/29 08:51:45;;;;;;;7.20;3.60;;;11.20;99.90;;;;;;5029156;28;20263;-78
2023/10/29 08:54:11;;;;;;;6.28;3.53;;;11.10;99.90;;;;;;5030758;28;20047;-79
2023/10/29 08:56:37;;;;;;;5.47;3.60;;;11.00;99.90;;;;;;5035997;28;20112;-77
2023/10/29 08:59:04;;;;;;;40.00;25.48;;;11.00;99.90;;;;;;5028320;28;20048;-78
2023/10/29 09:01:30;;;;;;;14.68;9.07;;;10.90;99.90;;;;;;5027159;28;20437;-78
2023/10/29 09:03:56;;;;;;;20.63;13.30;;;11.10;99.90;;;;;;5035935;28;20033;-78
2023/10/29 09:06:23;;;;;;;12.82;5.13;;;11.20;99.90;;;;;;5038671;28;20376;-78
2023/10/29 09:08:49;;;;;;;11.63;4.22;;;11.10;99.90;;;;;;5040018;28;20028;-80
2023/10/29 09:11:15;;;;;;;12.38;4.82;;;11.00;99.90;;;;;;5026517;28;20025;-78
2023/10/29 09:13:41;;;;;;;10.38;4.47;;;11.10;99.90;;;;;;5040119;28;20041;-78
2023/10/29 09:16:07;;;;;;;8.90;4.60;;;11.10;99.90;;;;;;5026104;28;20036;-79
2023/10/29 09:18:32;;;;;;;6.32;3.95;;;11.20;99.90;;;;;;5030768;28;20022;-77
2023/10/29 09:20:58;;;;;;;10.00;5.25;;;11.20;99.90;;;;;;5034858;28;20068;-78
2023/10/29 09:23:24;;;;;;;9.23;3.90;;;11.30;99.90;;;;;;5030856;28;20097;-77
2023/10/29 09:25:50;;;;;;;9.25;4.63;;;11.30;99.90;;;;;;5035821;28;20577;-77
2023/10/29 09:28:16;;;;;;;7.78;3.85;;;11.30;99.90;;;;;;5037664;28;20579;-78
2023/10/29 09:30:42;;;;;;;7.78;4.00;;;11.30;99.90;;;;;;5040378;28;20036;-79
2023/10/29 09:33:09;;;;;;;7.60;5.00;;;11.20;99.90;;;;;;5026831;28;20096;-78
2023/10/29 09:35:35;;;;;;;10.35;4.65;;;11.20;99.90;;;;;;5035364;28;20558;-79
2023/10/29 09:38:01;;;;;;;87.00;51.28;;;11.10;99.90;;;;;;5038246;28;20036;-79
2023/10/29 09:40:27;;;;;;;58.65;35.15;;;11.00;99.90;;;;;;5036414;28;20040;-78
2023/10/29 09:42:55;;;;;;;192.75;116.90;;;11.10;99.90;;;;;;5037300;28;20036;-79
2023/10/29 09:45:26;;;;;;;192.52;124.30;;;11.10;99.90;;;;;;5035877;28;20033;-79
2023/10/29 09:47:53;;;;;;;18.23;14.75;;;11.20;99.90;;;;;;5036727;28;20029;-77
2023/10/29 09:50:19;;;;;;;15.30;13.43;;;11.20;99.90;;;;;;5026199;28;20026;-80
2023/10/29 09:52:55;;;;;;;7.53;5.45;;;11.20;99.90;;;;;;5026610;28;20033;-79
2023/10/29 09:55:22;;;;;;;13.48;9.05;;;11.10;99.90;;;;;;5038084;28;20024;-81
2023/10/29 09:57:49;;;;;;;12.45;9.98;;;11.30;99.90;;;;;;5030837;28;20059;-79
2023/10/29 10:00:15;;;;;;;9.82;8.23;;;11.40;99.90;;;;;;5037919;28;20116;-76
2023/10/29 10:02:51;;;;;;;12.93;6.38;;;11.60;99.90;;;;;;5041423;28;20021;-78
2023/10/29 10:05:20;;;;;;;9.50;4.75;;;11.40;99.90;;;;;;5034863;28;20029;-77
2023/10/29 10:07:46;;;;;;;6.30;3.80;;;11.40;99.90;;;;;;5037270;28;20578;-80
2023/10/29 10:10:12;;;;;;;6.97;4.32;;;11.40;99.90;;;;;;5031218;28;20025;-78
2023/10/29 10:12:51;;;;;;;7.28;3.80;;;11.40;99.90;;;;;;5034647;28;20110;-78
2023/10/29 10:15:18;;;;;;;7.32;3.67;;;11.50;99.90;;;;;;5026556;28;20045;-79
2023/10/29 10:17:49;;;;;;;9.18;3.80;;;11.50;99.90;;;;;;5025326;28;20545;-79
2023/10/29 10:20:19;;;;;;;6.40;4.60;;;11.30;99.90;;;;;;5033961;28;20053;-78
2023/10/29 10:22:45;;;;;;;8.70;4.28;;;11.40;99.90;;;;;;5033029;28;20033;-78
2023/10/29 10:25:23;;;;;;;8.35;3.70;;;11.50;99.90;;;;;;5028289;28;20037;-79
2023/10/29 10:27:51;;;;;;;6.50;3.38;;;11.40;99.90;;;;;;5032705;28;20108;-77
2023/10/29 10:30:39;;;;;;;7.38;3.92;;;11.30;99.90;;;;;;5043613;28;20029;-78
2023/10/29 10:33:21;;;;;;;6.32;3.53;;;11.30;99.90;;;;;;5032941;28;20048;-78
2023/10/29 10:35:54;;;;;;;7.47;5.35;;;11.30;99.90;;;;;;5036154;28;20399;-78
2023/10/29 10:38:20;;;;;;;31.92;17.70;;;11.10;99.90;;;;;;5062086;28;20055;-79
2023/10/29 10:40:47;;;;;;;59.42;33.00;;;11.10;99.90;;;;;;5039654;28;20044;-78
2023/10/29 10:43:19;;;;;;;39.83;19.67;;;11.10;99.90;;;;;;5030858;28;20068;-77
2023/10/29 10:45:52;;;;;;;50.47;27.05;;;11.00;99.90;;;;;;5030153;28;20048;-78
2023/10/29 10:48:18;;;;;;;19.42;11.60;;;11.00;99.90;;;;;;5029154;28;20025;-77
2023/10/29 10:50:44;;;;;;;20.88;13.15;;;11.00;99.90;;;;;;5026994;28;20503;-78
2023/10/29 10:53:10;;;;;;;25.25;16.70;;;11.10;99.90;;;;;;5028848;28;20041;-78
2023/10/29 10:55:37;;;;;;;10.07;5.82;;;11.30;99.90;;;;;;5027826;28;20025;-78
2023/10/29 10:58:04;;;;;;;7.78;3.95;;;11.30;99.90;;;;;;5038203;28;20693;-76
2023/10/29 11:00:34;;;;;;;4.78;3.15;;;11.30;99.90;;;;;;5030730;28;20042;-78
2023/10/29 11:03:02;;;;;;;6.75;2.83;;;11.30;99.90;;;;;;5034056;28;20029;-78
2023/10/29 11:05:32;;;;;;;6.38;2.95;;;11.40;99.90;;;;;;5042816;28;20611;-79
2023/10/29 11:07:58;;;;;;;5.95;2.50;;;11.40;99.90;;;;;;5036279;28;20029;-78
2023/10/29 11:10:25;;;;;;;9.23;2.90;;;11.40;99.90;;;;;;5028494;28;20076;-82
2023/10/29 11:12:51;;;;;;;6.03;2.72;;;11.60;99.90;;;;;;5031727;28;20511;-79
2023/10/29 11:15:19;;;;;;;11.95;6.38;;;11.60;99.90;;;;;;5034180;28;20048;-79
2023/10/29 11:17:59;;;;;;;255.95;32.35;;;11.70;99.90;;;;;;5042565;28;20109;-78
2023/10/29 11:20:51;;;;;;;12.32;4.25;;;11.50;99.90;;;;;;5036605;28;20407;-79
2023/10/29 11:23:23;;;;;;;10.88;4.15;;;11.40;99.90;;;;;;5029184;28;20136;-78
2023/10/29 11:25:49;;;;;;;7.43;3.70;;;11.30;99.90;;;;;;5041573;28;20066;-78
2023/10/29 11:28:24;;;;;;;7.53;3.38;;;11.40;99.90;;;;;;5040879;28;20083;-78
2023/10/29 11:31:15;;;;;;;9.10;4.28;;;11.40;99.90;;;;;;5031735;28;20040;-78
2023/10/29 11:33:54;;;;;;;6.40;3.85;;;11.40;99.90;;;;;;5035317;28;20395;-78
2023/10/29 11:36:38;;;;;;;7.18;3.47;;;11.30;99.90;;;;;;5044292;28;20040;-78
2023/10/29 11:39:15;;;;;;;8.13;3.55;;;11.20;99.90;;;;;;5040427;28;21089;-79
2023/10/29 11:41:48;;;;;;;7.25;3.72;;;11.20;99.90;;;;;;5034476;28;20082;-78
2023/10/29 11:44:20;;;;;;;6.60;3.97;;;11.00;99.90;;;;;;5039576;28;20486;-78
2023/10/29 11:47:04;;;;;;;9.60;4.18;;;11.00;99.90;;;;;;5029995;28;20029;-79
2023/10/29 11:49:56;;;;;;;7.00;4.00;;;10.90;99.90;;;;;;5016286;28;20036;-78
2023/10/29 11:52:27;;;;;;;8.80;3.97;;;11.00;99.90;;;;;;5035444;28;20125;-78
2023/10/29 11:55:02;;;;;;;8.77;5.00;;;10.90;99.90;;;;;;5047071;28;20103;-79
2023/10/29 11:57:27;;;;;;;;;;;10.90;99.90;;;;;;5039835;28;20049;-78
2023/10/29 11:59:54;;;;;;;6.20;4.10;;;10.90;99.90;;;;;;5037510;28;19935;-77
2023/10/29 12:02:21;;;;;;;6.82;4.50;;;10.90;99.90;;;;;;5042129;28;20048;-78
2023/10/29 12:04:47;;;;;;;6.68;4.45;;;11.00;99.90;;;;;;5045898;28;20029;-83
2023/10/29 12:07:26;;;;;;;7.97;4.35;;;11.20;99.90;;;;;;5032018;28;20048;-77
2023/10/29 12:10:08;;;;;;;7.47;4.25;;;11.10;99.90;;;;;;5029977;28;20128;-77
2023/10/29 12:12:34;;;;;;;7.25;4.43;;;11.10;99.90;;;;;;5038670;28;20419;-78
2023/10/29 12:15:01;;;;;;;5.80;4.22;;;11.10;99.90;;;;;;5032510;28;20072;-76
2023/10/29 12:17:28;;;;;;;9.48;4.20;;;11.30;99.90;;;;;;5029387;28;20072;-81
2023/10/29 12:19:54;;;;;;;12.57;5.18;;;11.20;99.90;;;;;;5027363;28;20063;-79
2023/10/29 12:22:25;;;;;;;44.38;8.93;;;11.20;99.90;;;;;;5027132;28;20017;-77
2023/10/29 12:24:58;;;;;;;16.08;5.55;;;11.00;99.90;;;;;;5030185;28;20026;-76
2023/10/29 12:27:24;;;;;;;7.28;3.92;;;11.00;99.90;;;;;;5025366;28;20053;-77
2023/10/29 12:29:50;;;;;;;6.03;4.45;;;11.10;99.90;;;;;;5034044;28;20072;-80
2023/10/29 12:32:22;;;;;;;8.75;4.43;;;11.20;99.90;;;;;;5039948;28;20127;-81
2023/10/29 12:34:56;;;;;;;10.32;5.22;;;11.40;99.90;;;;;;5026218;28;20029;-77
2023/10/29 12:37:22;;;;;;;9.73;5.20;;;11.50;99.90;;;;;;5028669;28;20025;-76
2023/10/29 12:39:51;;;;;;;7.15;4.20;;;11.40;99.90;;;;;;5024411;28;20025;-76
2023/10/29 12:42:17;;;;;;;8.65;3.78;;;11.40;99.90;;;;;;5035334;28;20033;-77
2023/10/29 12:44:55;;;;;;;5.57;3.72;;;11.40;99.90;;;;;;5030502;28;20035;-76
2023/10/29 12:47:22;;;;;;;6.45;3.67;;;11.40;99.90;;;;;;5025698;28;20032;-76